WZZ21WX EPGD-ENHD
Flight info
| Callsign | WZZ21WX |
|---|---|
| Flight time | N/A |
| Altitude | 38000 |
| Route | VAPOS N133 PENOR DCT KOTAM DCT VADIN DCT GOTEX DCT AMSEV DCT RIVEX |
| Aircraft | A20N/M-SDE2E3FGHIRWXY/LB1 |
Departure
| Time | 2026-05-05 17:01 |
|---|---|
| Airport | Gdańsk Lech Wałęsa Airport (EPGD) |
Arrival
| Time | N/A |
|---|---|
| Airport | Haugesund Airport, Karmøy (ENHD) |
| Time | Latitude | Longitude | Altitude | Speed | Heading |
|---|---|---|---|---|---|
| 2026-05-05 16:35 | 54.38059 | 18.46374 | 448 ft | 0 kts | 202° |
| 2026-05-05 16:49 | 54.38061 | 18.46376 | 448 ft | 2 kts | 202° |
| 2026-05-05 16:49 | 54.38068 | 18.46381 | 448 ft | 2 kts | 202° |
| 2026-05-05 16:50 | 54.38074 | 18.46384 | 448 ft | 2 kts | 202° |
| 2026-05-05 16:50 | 54.38079 | 18.46388 | 448 ft | 2 kts | 202° |
| 2026-05-05 16:50 | 54.38086 | 18.46393 | 448 ft | 2 kts | 202° |
| 2026-05-05 16:50 | 54.38092 | 18.46398 | 448 ft | 2 kts | 202° |
| 2026-05-05 16:51 | 54.38096 | 18.46400 | 448 ft | 2 kts | 202° |
| 2026-05-05 16:52 | 54.38110 | 18.46426 | 449 ft | 2 kts | 266° |
| 2026-05-05 16:52 | 54.38109 | 18.46440 | 449 ft | 0 kts | 291° |
| 2026-05-05 16:52 | 54.38105 | 18.46452 | 449 ft | 0 kts | 293° |
| 2026-05-05 16:57 | 54.38108 | 18.46443 | 449 ft | 2 kts | 294° |
| 2026-05-05 16:57 | 54.38119 | 18.46399 | 448 ft | 6 kts | 294° |
| 2026-05-05 16:57 | 54.38140 | 18.46316 | 448 ft | 8 kts | 292° |
| 2026-05-05 16:57 | 54.38164 | 18.46219 | 448 ft | 10 kts | 292° |
| 2026-05-05 16:58 | 54.38164 | 18.46105 | 448 ft | 11 kts | 223° |
| 2026-05-05 16:58 | 54.38100 | 18.46027 | 448 ft | 11 kts | 245° |
| 2026-05-05 16:58 | 54.38114 | 18.45888 | 448 ft | 12 kts | 293° |
| 2026-05-05 16:58 | 54.38148 | 18.45738 | 448 ft | 10 kts | 277° |
| 2026-05-05 16:59 | 54.38125 | 18.45636 | 447 ft | 9 kts | 223° |
| 2026-05-05 16:59 | 54.38060 | 18.45603 | 446 ft | 9 kts | 185° |
| 2026-05-05 16:59 | 54.38031 | 18.45506 | 445 ft | 11 kts | 283° |
| 2026-05-05 16:59 | 54.38074 | 18.45393 | 445 ft | 11 kts | 310° |
| 2026-05-05 17:00 | 54.38126 | 18.45293 | 446 ft | 10 kts | 271° |
| 2026-05-05 17:00 | 54.38083 | 18.45301 | 445 ft | 0 kts | 111° |
| 2026-05-05 17:00 | 54.38077 | 18.45328 | 445 ft | 19 kts | 112° |
| 2026-05-05 17:00 | 54.37920 | 18.45981 | 446 ft | 100 kts | 110° |
| 2026-05-05 17:01 | 54.37596 | 18.47261 | 457 ft | 157 kts | 112° |
| 2026-05-05 17:01 | 54.37124 | 18.49170 | 909 ft | 177 kts | 110° |
| 2026-05-05 17:01 | 54.36630 | 18.51145 | 1767 ft | 181 kts | 108° |
| 2026-05-05 17:01 | 54.36233 | 18.53156 | 2694 ft | 180 kts | 103° |
| 2026-05-05 17:02 | 54.35793 | 18.55237 | 3266 ft | 196 kts | 112° |
| 2026-05-05 17:02 | 54.35194 | 18.57427 | 3805 ft | 214 kts | 114° |
| 2026-05-05 17:02 | 54.34535 | 18.59827 | 4364 ft | 231 kts | 114° |
| 2026-05-05 17:02 | 54.33841 | 18.62465 | 5004 ft | 247 kts | 111° |
| 2026-05-05 17:03 | 54.33546 | 18.65400 | 5687 ft | 261 kts | 82° |
| 2026-05-05 17:03 | 54.34291 | 18.68276 | 6258 ft | 277 kts | 46° |
| 2026-05-05 17:03 | 54.35931 | 18.70044 | 6966 ft | 282 kts | 11° |
| 2026-05-05 17:03 | 54.37858 | 18.69974 | 7791 ft | 278 kts | 336° |
| 2026-05-05 17:04 | 54.39418 | 18.68150 | 8637 ft | 272 kts | 306° |
| 2026-05-05 17:04 | 54.40557 | 18.65557 | 9491 ft | 275 kts | 302° |
| 2026-05-05 17:04 | 54.41715 | 18.62945 | 10300 ft | 281 kts | 304° |
| 2026-05-05 17:04 | 54.42987 | 18.60270 | 10827 ft | 297 kts | 306° |
| 2026-05-05 17:05 | 54.44390 | 18.57482 | 11248 ft | 316 kts | 308° |
| 2026-05-05 17:05 | 54.45921 | 18.54549 | 11637 ft | 334 kts | 309° |
| 2026-05-05 17:05 | 54.47513 | 18.51565 | 12147 ft | 347 kts | 309° |
| 2026-05-05 17:05 | 54.49184 | 18.48462 | 12929 ft | 350 kts | 309° |
| 2026-05-05 17:06 | 54.50835 | 18.45409 | 13705 ft | 353 kts | 310° |
| 2026-05-05 17:06 | 54.52533 | 18.42268 | 14453 ft | 356 kts | 309° |
| 2026-05-05 17:06 | 54.54227 | 18.39134 | 15157 ft | 360 kts | 309° |
| 2026-05-05 17:06 | 54.55929 | 18.35980 | 15840 ft | 364 kts | 309° |
| 2026-05-05 17:07 | 54.57673 | 18.32742 | 16526 ft | 367 kts | 308° |
| 2026-05-05 17:07 | 54.59378 | 18.29410 | 17211 ft | 368 kts | 303° |
| 2026-05-05 17:07 | 54.60801 | 18.25747 | 17874 ft | 367 kts | 295° |
| 2026-05-05 17:07 | 54.61908 | 18.21802 | 18522 ft | 367 kts | 289° |
| 2026-05-05 17:08 | 54.62901 | 18.17753 | 19167 ft | 370 kts | 291° |
| 2026-05-05 17:08 | 54.64148 | 18.13804 | 19781 ft | 376 kts | 298° |
| 2026-05-05 17:08 | 54.65712 | 18.10113 | 20374 ft | 383 kts | 304° |
| 2026-05-05 17:08 | 54.67432 | 18.06628 | 20974 ft | 387 kts | 306° |
| 2026-05-05 17:09 | 54.69227 | 18.03088 | 21600 ft | 389 kts | 306° |
| 2026-05-05 17:09 | 54.71022 | 17.99549 | 22183 ft | 392 kts | 306° |
| 2026-05-05 17:09 | 54.72803 | 17.96027 | 22742 ft | 395 kts | 306° |
| 2026-05-05 17:09 | 54.74633 | 17.92394 | 23306 ft | 398 kts | 305° |
| 2026-05-05 17:10 | 54.76441 | 17.88792 | 23812 ft | 401 kts | 305° |
| 2026-05-05 17:10 | 54.78362 | 17.85234 | 24353 ft | 408 kts | 311° |
| 2026-05-05 17:10 | 54.80602 | 17.82191 | 24890 ft | 417 kts | 320° |
| 2026-05-05 17:10 | 54.83182 | 17.79702 | 25422 ft | 426 kts | 327° |
| 2026-05-05 17:11 | 54.85867 | 17.77552 | 25923 ft | 429 kts | 329° |
| 2026-05-05 17:11 | 54.88600 | 17.75442 | 26389 ft | 432 kts | 329° |
| 2026-05-05 17:11 | 54.91370 | 17.73305 | 26862 ft | 434 kts | 329° |
| 2026-05-05 17:11 | 54.94105 | 17.71167 | 27284 ft | 436 kts | 329° |
| 2026-05-05 17:12 | 54.96895 | 17.68973 | 27705 ft | 439 kts | 328° |
| 2026-05-05 17:12 | 54.99707 | 17.66782 | 28076 ft | 442 kts | 329° |
| 2026-05-05 17:12 | 55.02515 | 17.64640 | 28448 ft | 444 kts | 329° |
| 2026-05-05 17:12 | 55.05348 | 17.62486 | 28798 ft | 446 kts | 329° |
| 2026-05-05 17:13 | 55.08210 | 17.60307 | 29139 ft | 447 kts | 329° |
| 2026-05-05 17:13 | 55.11037 | 17.58147 | 29471 ft | 448 kts | 329° |
| 2026-05-05 17:13 | 55.13924 | 17.55940 | 29884 ft | 446 kts | 329° |
| 2026-05-05 17:13 | 55.16784 | 17.53744 | 30309 ft | 444 kts | 329° |
| 2026-05-05 17:14 | 55.19599 | 17.51575 | 30708 ft | 443 kts | 329° |
| 2026-05-05 17:14 | 55.22434 | 17.49373 | 31078 ft | 440 kts | 329° |
| 2026-05-05 17:14 | 55.25203 | 17.47178 | 31401 ft | 440 kts | 329° |
| 2026-05-05 17:14 | 55.27999 | 17.44944 | 31677 ft | 440 kts | 329° |
| 2026-05-05 17:15 | 55.30792 | 17.42710 | 31972 ft | 440 kts | 329° |
| 2026-05-05 17:15 | 55.33581 | 17.40483 | 32271 ft | 439 kts | 329° |
| 2026-05-05 17:15 | 55.36356 | 17.38267 | 32541 ft | 439 kts | 329° |
| 2026-05-05 17:15 | 55.39160 | 17.36022 | 32808 ft | 439 kts | 329° |
| 2026-05-05 17:16 | 55.41947 | 17.33790 | 33095 ft | 439 kts | 328° |
| 2026-05-05 17:16 | 55.44759 | 17.31532 | 33401 ft | 438 kts | 329° |
| 2026-05-05 17:16 | 55.47509 | 17.29324 | 33693 ft | 437 kts | 329° |
| 2026-05-05 17:16 | 55.50289 | 17.27087 | 33969 ft | 437 kts | 329° |
| 2026-05-05 17:17 | 55.53079 | 17.24842 | 34240 ft | 436 kts | 329° |
| 2026-05-05 17:17 | 55.55808 | 17.22639 | 34492 ft | 436 kts | 329° |
| 2026-05-05 17:17 | 55.58571 | 17.20403 | 34749 ft | 435 kts | 329° |
| 2026-05-05 17:17 | 55.61285 | 17.17964 | 34929 ft | 428 kts | 320° |
| 2026-05-05 17:18 | 55.63485 | 17.14597 | 35081 ft | 417 kts | 306° |
| 2026-05-05 17:18 | 55.65096 | 17.10389 | 35242 ft | 409 kts | 292° |
| 2026-05-05 17:18 | 55.66202 | 17.05747 | 35413 ft | 406 kts | 288° |
| 2026-05-05 17:18 | 55.67249 | 17.01032 | 35559 ft | 407 kts | 288° |
| 2026-05-05 17:19 | 55.68289 | 16.96322 | 35694 ft | 407 kts | 288° |
| 2026-05-05 17:19 | 55.69326 | 16.91626 | 35824 ft | 407 kts | 288° |
| 2026-05-05 17:19 | 55.70365 | 16.86925 | 35947 ft | 408 kts | 288° |
| 2026-05-05 17:19 | 55.71391 | 16.82275 | 36060 ft | 408 kts | 288° |
| 2026-05-05 17:20 | 55.72433 | 16.77549 | 36171 ft | 409 kts | 288° |
| 2026-05-05 17:20 | 55.73464 | 16.72864 | 36297 ft | 409 kts | 288° |
| 2026-05-05 17:20 | 55.74510 | 16.68105 | 36464 ft | 410 kts | 288° |
| 2026-05-05 17:20 | 55.75545 | 16.63387 | 36628 ft | 410 kts | 288° |
| 2026-05-05 17:21 | 55.76579 | 16.58668 | 36797 ft | 410 kts | 288° |
| 2026-05-05 17:21 | 55.77621 | 16.53898 | 36963 ft | 410 kts | 288° |
| 2026-05-05 17:21 | 55.78649 | 16.49179 | 37128 ft | 409 kts | 288° |
| 2026-05-05 17:22 | 55.80713 | 16.39673 | 37407 ft | 410 kts | 288° |
| 2026-05-05 17:22 | 55.81742 | 16.34921 | 37549 ft | 410 kts | 287° |
| 2026-05-05 17:22 | 55.82783 | 16.30098 | 37717 ft | 410 kts | 288° |
| 2026-05-05 17:22 | 55.83805 | 16.25355 | 37847 ft | 410 kts | 288° |
| 2026-05-05 17:23 | 55.84842 | 16.20528 | 37852 ft | 411 kts | 288° |
| 2026-05-05 17:23 | 55.86881 | 16.11022 | 37865 ft | 411 kts | 287° |
| 2026-05-05 17:24 | 55.88912 | 16.01490 | 37860 ft | 411 kts | 287° |
| 2026-05-05 17:24 | 55.90950 | 15.91888 | 37858 ft | 411 kts | 287° |
| 2026-05-05 17:25 | 55.92964 | 15.82354 | 37863 ft | 411 kts | 287° |
| 2026-05-05 17:25 | 55.94985 | 15.72741 | 37870 ft | 411 kts | 287° |
| 2026-05-05 17:26 | 55.96993 | 15.63142 | 37873 ft | 411 kts | 287° |
| 2026-05-05 17:26 | 55.98994 | 15.53529 | 37864 ft | 411 kts | 288° |
| 2026-05-05 17:27 | 56.00980 | 15.43954 | 37864 ft | 411 kts | 287° |
| 2026-05-05 17:27 | 56.02964 | 15.34338 | 37862 ft | 410 kts | 287° |
| 2026-05-05 17:28 | 56.04913 | 15.24839 | 37858 ft | 410 kts | 287° |
| 2026-05-05 17:28 | 56.06870 | 15.15264 | 37865 ft | 410 kts | 287° |
| 2026-05-05 17:29 | 56.08818 | 15.05687 | 37858 ft | 410 kts | 286° |
| 2026-05-05 17:29 | 56.10759 | 14.96092 | 37868 ft | 410 kts | 286° |
| 2026-05-05 17:30 | 56.12763 | 14.86521 | 37854 ft | 411 kts | 290° |
| 2026-05-05 17:30 | 56.15371 | 14.77352 | 37854 ft | 415 kts | 296° |
| 2026-05-05 17:31 | 56.18327 | 14.68475 | 37849 ft | 415 kts | 297° |
| 2026-05-05 17:31 | 56.21290 | 14.59612 | 37852 ft | 415 kts | 297° |
| 2026-05-05 17:32 | 56.24234 | 14.50766 | 37847 ft | 414 kts | 297° |
| 2026-05-05 17:32 | 56.27180 | 14.41874 | 37861 ft | 414 kts | 297° |
| 2026-05-05 17:33 | 56.30111 | 14.32991 | 37863 ft | 414 kts | 296° |
| 2026-05-05 17:33 | 56.33030 | 14.24112 | 37849 ft | 413 kts | 296° |
| 2026-05-05 17:34 | 56.35935 | 14.15242 | 37867 ft | 413 kts | 296° |
| 2026-05-05 17:34 | 56.38851 | 14.06301 | 37862 ft | 415 kts | 296° |
| 2026-05-05 17:35 | 56.41776 | 13.97307 | 37864 ft | 415 kts | 296° |
| 2026-05-05 17:35 | 56.44685 | 13.88324 | 37867 ft | 415 kts | 296° |
| 2026-05-05 17:36 | 56.47573 | 13.79373 | 37860 ft | 414 kts | 296° |
| 2026-05-05 17:36 | 56.50470 | 13.70359 | 37866 ft | 414 kts | 296° |
| 2026-05-05 17:37 | 56.53348 | 13.61373 | 37863 ft | 413 kts | 296° |
| 2026-05-05 17:37 | 56.56224 | 13.52356 | 37880 ft | 414 kts | 296° |
| 2026-05-05 17:38 | 56.59083 | 13.43362 | 37871 ft | 414 kts | 296° |
| 2026-05-05 17:38 | 56.61928 | 13.34378 | 37877 ft | 413 kts | 295° |
| 2026-05-05 17:39 | 56.64791 | 13.25298 | 37893 ft | 413 kts | 295° |
| 2026-05-05 17:39 | 56.67629 | 13.16262 | 37897 ft | 413 kts | 295° |
| 2026-05-05 17:40 | 56.70461 | 13.07217 | 37897 ft | 412 kts | 295° |
| 2026-05-05 17:40 | 56.73264 | 12.98228 | 37917 ft | 412 kts | 295° |
| 2026-05-05 17:41 | 56.76094 | 12.89116 | 37902 ft | 412 kts | 295° |
| 2026-05-05 17:41 | 56.78893 | 12.80072 | 37910 ft | 411 kts | 295° |
| 2026-05-05 17:42 | 56.81689 | 12.71004 | 37907 ft | 412 kts | 295° |
| 2026-05-05 17:42 | 56.84475 | 12.61928 | 37909 ft | 412 kts | 295° |
| 2026-05-05 17:43 | 56.87267 | 12.52798 | 37912 ft | 412 kts | 295° |
| 2026-05-05 17:43 | 56.90055 | 12.43650 | 37917 ft | 412 kts | 295° |
| 2026-05-05 17:44 | 56.92833 | 12.34498 | 37920 ft | 412 kts | 294° |
| 2026-05-05 17:44 | 56.95617 | 12.25287 | 37917 ft | 412 kts | 294° |
| 2026-05-05 17:45 | 56.98385 | 12.16099 | 37913 ft | 412 kts | 294° |
| 2026-05-05 17:45 | 57.01150 | 12.06888 | 37913 ft | 412 kts | 294° |
| 2026-05-05 17:46 | 57.03900 | 11.97681 | 37911 ft | 412 kts | 294° |
| 2026-05-05 17:46 | 57.06658 | 11.88416 | 37913 ft | 411 kts | 294° |
| 2026-05-05 17:47 | 57.09395 | 11.79187 | 37908 ft | 410 kts | 294° |
| 2026-05-05 17:47 | 57.12119 | 11.69939 | 37905 ft | 409 kts | 293° |
| 2026-05-05 17:48 | 57.14427 | 11.60444 | 37903 ft | 405 kts | 287° |
| 2026-05-05 17:48 | 57.16262 | 11.50621 | 37900 ft | 404 kts | 285° |
| 2026-05-05 17:49 | 57.18037 | 11.40831 | 37903 ft | 403 kts | 285° |
| 2026-05-05 17:49 | 57.19819 | 11.30949 | 37898 ft | 403 kts | 285° |
| 2026-05-05 17:50 | 57.21693 | 11.21221 | 37896 ft | 403 kts | 287° |
| 2026-05-05 17:50 | 57.23658 | 11.11482 | 37892 ft | 404 kts | 287° |
| 2026-05-05 17:51 | 57.25609 | 11.01764 | 37903 ft | 404 kts | 287° |
| 2026-05-05 17:51 | 57.27544 | 10.92066 | 37917 ft | 403 kts | 287° |
| 2026-05-05 17:52 | 57.29480 | 10.82319 | 37920 ft | 404 kts | 287° |
| 2026-05-05 17:52 | 57.31417 | 10.72519 | 37936 ft | 404 kts | 287° |
| 2026-05-05 17:53 | 57.33332 | 10.62778 | 37931 ft | 404 kts | 287° |
| 2026-05-05 17:53 | 57.35249 | 10.52984 | 37936 ft | 404 kts | 287° |
| 2026-05-05 17:54 | 57.37168 | 10.43127 | 37929 ft | 404 kts | 287° |
| 2026-05-05 17:54 | 57.39063 | 10.33337 | 37926 ft | 404 kts | 286° |
| 2026-05-05 17:55 | 57.40964 | 10.23474 | 37931 ft | 405 kts | 286° |
| 2026-05-05 17:55 | 57.42854 | 10.13609 | 37919 ft | 405 kts | 286° |
| 2026-05-05 17:56 | 57.44732 | 10.03769 | 37913 ft | 405 kts | 286° |
| 2026-05-05 17:56 | 57.46620 | 9.93816 | 37906 ft | 405 kts | 286° |
| 2026-05-05 17:57 | 57.48478 | 9.83983 | 37917 ft | 406 kts | 286° |
| 2026-05-05 17:57 | 57.50338 | 9.74080 | 37912 ft | 406 kts | 286° |
| 2026-05-05 17:58 | 57.52191 | 9.64164 | 37915 ft | 406 kts | 286° |
| 2026-05-05 17:58 | 57.54030 | 9.54264 | 37914 ft | 405 kts | 286° |
| 2026-05-05 17:59 | 57.55861 | 9.44367 | 37918 ft | 405 kts | 286° |
| 2026-05-05 17:59 | 57.57682 | 9.34471 | 37907 ft | 405 kts | 285° |